createdAt,value
2022-12-20T00:02:53.862Z,81.88
2022-12-20T00:07:56.159Z,81.83
2022-12-20T00:12:58.369Z,81.59
2022-12-20T00:18:01.222Z,81.98
2022-12-20T00:23:03.998Z,81.67
2022-12-20T00:28:06.259Z,81.72
2022-12-20T00:33:08.464Z,81.70
2022-12-20T00:38:10.770Z,81.48
2022-12-20T00:43:13.294Z,81.63
2022-12-20T00:48:15.525Z,81.48
2022-12-20T00:53:22.641Z,81.35
2022-12-20T00:58:29.082Z,81.42
2022-12-20T01:03:32.566Z,81.29
2022-12-20T01:08:34.958Z,81.04
2022-12-20T01:13:39.271Z,81.23
2022-12-20T01:18:41.934Z,81.33
2022-12-20T01:23:44.553Z,81.30
2022-12-20T01:28:48.229Z,81.26
2022-12-20T01:33:51.712Z,81.29
2022-12-20T01:39:16.050Z,81.07
2022-12-20T01:44:18.184Z,81.30
2022-12-20T01:49:33.248Z,81.29
2022-12-20T01:54:59.627Z,81.28
2022-12-20T02:00:02.310Z,81.06
2022-12-20T02:05:18.223Z,80.95
2022-12-20T02:10:24.513Z,80.97
2022-12-20T02:15:36.312Z,80.90
2022-12-20T02:21:06.609Z,80.46
2022-12-20T02:26:27.405Z,80.58
2022-12-20T02:31:50.602Z,80.26
2022-12-20T02:36:53.271Z,80.53
2022-12-20T02:41:58.926Z,80.24
2022-12-20T02:47:03.484Z,80.03
2022-12-20T02:52:06.275Z,80.01
2022-12-20T02:57:22.918Z,79.48
2022-12-20T03:02:25.980Z,79.51
2022-12-20T03:07:29.587Z,79.72
2022-12-20T03:12:32.525Z,79.10
2022-12-20T03:17:35.247Z,78.98
2022-12-20T03:22:38.790Z,78.71
2022-12-20T03:27:41.285Z,78.72
2022-12-20T03:32:44.898Z,78.25
2022-12-20T03:37:47.736Z,78.32
2022-12-20T03:42:50.085Z,78.19
2022-12-20T03:47:52.305Z,77.82
2022-12-20T03:52:55.671Z,77.76
2022-12-20T03:58:00.477Z,77.36
2022-12-20T04:03:07.208Z,77.18
2022-12-20T04:08:10.000Z,77.16
2022-12-20T04:13:12.366Z,76.90
2022-12-20T04:18:14.713Z,76.94
2022-12-20T04:23:17.736Z,76.65
2022-12-20T04:28:20.795Z,76.72
2022-12-20T04:33:25.348Z,76.84
2022-12-20T04:38:27.792Z,76.49
2022-12-20T04:43:30.457Z,76.36
2022-12-20T04:48:56.383Z,76.36
2022-12-20T04:53:58.039Z,76.06
2022-12-20T04:59:08.999Z,75.84
2022-12-20T05:04:11.917Z,75.93
2022-12-20T05:09:14.539Z,75.71
2022-12-20T05:14:17.027Z,75.64
2022-12-20T05:19:19.435Z,75.66
2022-12-20T05:24:40.592Z,75.52
2022-12-20T05:30:01.006Z,75.36
2022-12-20T05:35:06.133Z,75.56
2022-12-20T05:40:10.048Z,75.23
2022-12-20T05:45:13.525Z,75.20
2022-12-20T05:50:24.902Z,74.86
2022-12-20T05:55:48.908Z,74.57
2022-12-20T06:00:51.671Z,74.74
2022-12-20T06:05:54.885Z,74.92
2022-12-20T06:11:04.967Z,74.51
2022-12-20T06:16:13.851Z,74.57
2022-12-20T06:21:17.880Z,74.37
2022-12-20T06:26:26.278Z,74.46
2022-12-20T06:31:29.803Z,74.22
2022-12-20T06:36:32.255Z,74.24
2022-12-20T06:41:36.054Z,74.03
2022-12-20T06:46:38.465Z,73.98
2022-12-20T06:51:41.232Z,73.96
2022-12-20T06:56:44.030Z,73.62
2022-12-20T07:01:48.134Z,73.50
2022-12-20T07:06:50.599Z,73.58
2022-12-20T07:11:52.979Z,73.55
2022-12-20T07:16:55.454Z,73.63
2022-12-20T07:21:57.813Z,73.55
2022-12-20T07:27:00.323Z,73.75
2022-12-20T07:32:03.608Z,73.56
2022-12-20T07:37:05.954Z,73.92
2022-12-20T07:42:09.694Z,73.27
2022-12-20T07:47:17.669Z,71.64
2022-12-20T07:52:21.861Z,69.06
2022-12-20T07:57:28.266Z,68.12
2022-12-20T08:02:39.383Z,67.76
2022-12-20T08:07:43.792Z,68.82
2022-12-20T08:12:48.618Z,69.73
2022-12-20T08:17:51.399Z,70.15
2022-12-20T08:22:53.720Z,70.22
2022-12-20T08:27:56.359Z,70.55
2022-12-20T08:32:58.608Z,71.16
2022-12-20T08:38:00.910Z,71.26
2022-12-20T08:43:09.750Z,71.48
2022-12-20T08:48:12.346Z,71.91
2022-12-20T08:53:14.588Z,71.63
2022-12-20T08:58:17.015Z,71.33
2022-12-20T09:03:19.581Z,71.38
2022-12-20T09:08:21.884Z,71.53
2022-12-20T09:13:24.124Z,71.37
2022-12-20T09:18:26.354Z,71.46
2022-12-20T09:23:29.434Z,71.46
2022-12-20T09:28:32.771Z,71.12
2022-12-20T09:33:35.618Z,71.19
2022-12-20T09:38:37.874Z,71.18
2022-12-20T09:43:41.994Z,71.42
2022-12-20T09:48:44.942Z,71.51
2022-12-20T09:53:56.180Z,70.78
2022-12-20T09:59:07.266Z,70.78
2022-12-20T10:04:22.315Z,70.62
2022-12-20T10:09:33.901Z,70.67
2022-12-20T10:14:41.987Z,71.16
2022-12-20T10:20:04.811Z,70.56
2022-12-20T10:25:25.353Z,70.30
2022-12-20T10:30:33.201Z,71.06
2022-12-20T10:35:41.164Z,70.83
2022-12-20T10:41:21.196Z,70.73
2022-12-20T10:46:18.154Z,71.26
2022-12-20T10:51:22.860Z,70.94
2022-12-20T10:56:30.394Z,71.27
2022-12-20T11:01:36.000Z,71.19
2022-12-20T11:06:38.363Z,71.40
2022-12-20T11:12:00.179Z,71.09
2022-12-20T11:17:25.821Z,70.66
2022-12-20T11:22:56.623Z,70.85
2022-12-20T11:28:12.349Z,70.87
2022-12-20T11:33:36.463Z,70.78
2022-12-20T11:38:42.673Z,71.06
2022-12-20T11:44:31.186Z,70.37
2022-12-20T11:50:04.834Z,70.68
2022-12-20T11:55:12.858Z,70.84
2022-12-20T12:00:16.358Z,71.03
2022-12-20T12:05:25.733Z,70.83
2022-12-20T12:10:32.845Z,71.30
2022-12-20T12:15:39.089Z,71.23
2022-12-20T12:20:48.720Z,70.69
2022-12-20T12:25:51.320Z,70.85
2022-12-20T12:31:15.769Z,70.35
2022-12-20T12:36:36.140Z,70.77
2022-12-20T12:42:09.468Z,70.78
2022-12-20T12:47:20.321Z,70.85
2022-12-20T12:52:50.838Z,70.77
2022-12-20T12:57:59.589Z,70.91
2022-12-20T13:03:06.374Z,71.00
2022-12-20T13:08:18.617Z,70.94
2022-12-20T13:13:23.145Z,71.32
2022-12-20T13:18:25.950Z,71.25
2022-12-20T13:23:28.179Z,71.19
2022-12-20T13:28:30.332Z,71.48
2022-12-20T13:33:49.237Z,71.17
2022-12-20T13:38:53.729Z,71.72
2022-12-20T13:43:57.480Z,71.72
2022-12-20T13:49:11.006Z,71.65
2022-12-20T13:54:26.861Z,71.65
2022-12-20T13:59:33.517Z,71.64
2022-12-20T14:04:44.433Z,71.66
2022-12-20T14:09:56.477Z,71.73
2022-12-20T14:14:58.954Z,71.73
2022-12-20T14:20:17.813Z,71.77
2022-12-20T14:25:32.064Z,71.72
2022-12-20T14:30:43.229Z,71.73
2022-12-20T14:35:49.324Z,71.72
2022-12-20T14:40:54.203Z,71.92
2022-12-20T14:46:19.837Z,71.75
2022-12-20T14:51:22.417Z,71.73
2022-12-20T14:56:31.500Z,71.64
2022-12-20T15:01:38.534Z,71.81
2022-12-20T15:06:46.172Z,71.79
2022-12-20T15:11:49.243Z,71.49
2022-12-20T15:16:52.385Z,71.80
2022-12-20T15:21:55.113Z,71.81
2022-12-20T15:26:57.563Z,71.73
2022-12-20T15:32:13.733Z,71.61
2022-12-20T15:37:18.736Z,71.62
2022-12-20T15:42:23.192Z,71.70
2022-12-20T15:47:25.385Z,71.40
2022-12-20T15:52:27.850Z,71.42
2022-12-20T15:57:31.092Z,71.54
2022-12-20T16:02:33.654Z,71.52
2022-12-20T16:07:36.062Z,71.53
2022-12-20T16:12:38.865Z,71.80
2022-12-20T16:17:41.282Z,71.79
2022-12-20T16:22:45.116Z,71.84
2022-12-20T16:27:49.025Z,71.65
2022-12-20T16:32:51.501Z,72.00
2022-12-20T16:37:55.967Z,71.73
2022-12-20T16:42:59.788Z,71.64
2022-12-20T16:48:02.114Z,71.43
2022-12-20T16:53:04.466Z,71.25
2022-12-20T16:58:06.790Z,71.36
2022-12-20T17:03:09.135Z,71.59
2022-12-20T17:13:27.693Z,71.96
2022-12-20T17:18:29.959Z,71.92
2022-12-20T17:23:44.073Z,72.09
2022-12-20T17:28:46.914Z,72.10
2022-12-20T17:33:49.149Z,72.12
2022-12-20T17:38:51.539Z,72.10
2022-12-20T17:43:59.603Z,72.10
2022-12-20T17:49:01.875Z,71.98
2022-12-20T17:54:04.288Z,72.09
2022-12-20T17:59:06.555Z,72.05
2022-12-20T18:04:11.260Z,71.86
2022-12-20T18:09:18.899Z,71.68
2022-12-20T18:14:21.196Z,71.77
2022-12-20T18:19:23.487Z,71.55
2022-12-20T18:24:26.099Z,71.89
2022-12-20T18:29:28.963Z,71.74
2022-12-20T18:34:31.529Z,71.75
2022-12-20T18:39:34.056Z,71.87
2022-12-20T18:44:36.486Z,71.84
2022-12-20T18:49:38.904Z,71.73
2022-12-20T18:54:41.321Z,71.85
2022-12-20T18:59:43.790Z,71.66
2022-12-20T19:04:49.020Z,71.58
2022-12-20T19:09:51.301Z,71.51
2022-12-20T19:15:04.002Z,71.37
2022-12-20T19:20:07.257Z,71.58
2022-12-20T19:25:09.805Z,71.50
2022-12-20T19:30:12.294Z,71.92
2022-12-20T19:35:52.859Z,71.56
2022-12-20T19:40:37.228Z,71.71
2022-12-20T19:45:39.659Z,71.66
2022-12-20T19:50:41.900Z,71.85
2022-12-20T19:55:53.023Z,72.25
2022-12-20T20:00:55.965Z,72.50
2022-12-20T20:05:58.664Z,72.43
2022-12-20T20:11:08.789Z,72.69
2022-12-20T20:16:15.483Z,72.74
2022-12-20T20:21:23.304Z,72.86
2022-12-20T20:26:27.417Z,72.96
2022-12-20T20:31:29.802Z,72.98
2022-12-20T20:36:32.135Z,73.02
2022-12-20T20:41:34.523Z,73.14
2022-12-20T20:46:36.828Z,73.28
2022-12-20T20:51:39.206Z,73.25
2022-12-20T20:56:41.645Z,73.44
2022-12-20T21:01:43.936Z,73.62
2022-12-20T21:06:46.802Z,73.78
2022-12-20T21:11:49.223Z,73.80
2022-12-20T21:16:51.499Z,73.88
2022-12-20T21:21:53.817Z,74.34
2022-12-20T21:26:57.218Z,74.29
2022-12-20T21:31:59.548Z,74.49
2022-12-20T21:37:01.871Z,74.69
2022-12-20T21:42:04.254Z,74.67
2022-12-20T21:47:06.630Z,74.76
2022-12-20T21:52:08.840Z,74.77
2022-12-20T21:57:11.622Z,75.19
2022-12-20T22:02:14.731Z,74.78
2022-12-20T22:07:17.116Z,75.08
2022-12-20T22:12:19.520Z,75.36
2022-12-20T22:17:21.714Z,75.36
2022-12-20T22:22:25.630Z,75.58
2022-12-20T22:27:27.928Z,75.57
2022-12-20T22:32:31.932Z,75.71
2022-12-20T22:37:34.171Z,75.76
2022-12-20T22:42:40.155Z,75.71
2022-12-20T22:47:42.504Z,75.68
2022-12-20T22:52:44.792Z,75.83
2022-12-20T22:57:48.122Z,75.67
2022-12-20T23:02:50.711Z,75.93
2022-12-20T23:07:52.997Z,75.81
2022-12-20T23:13:21.143Z,75.63
2022-12-20T23:18:23.437Z,75.62
2022-12-20T23:23:25.728Z,75.59
2022-12-20T23:28:27.939Z,75.63
2022-12-20T23:33:30.255Z,75.63
2022-12-20T23:38:33.731Z,75.87
2022-12-20T23:43:36.676Z,75.61
2022-12-20T23:48:39.245Z,75.83
2022-12-20T23:53:41.512Z,75.98
2022-12-20T23:58:45.053Z,75.94
